createdAt,value
2023-10-03T00:00:16.733Z,87.000000
2023-10-03T00:05:16.688Z,87.000000
2023-10-03T00:10:16.688Z,87.000000
2023-10-03T00:15:16.717Z,88.000000
2023-10-03T00:20:16.770Z,88.000000
2023-10-03T00:25:16.931Z,88.000000
2023-10-03T00:30:16.894Z,88.000000
2023-10-03T00:35:16.786Z,88.000000
2023-10-03T00:40:17.013Z,89.000000
2023-10-03T00:45:16.845Z,89.000000
2023-10-03T00:50:16.809Z,88.000000
2023-10-03T00:55:16.868Z,88.000000
2023-10-03T01:00:16.806Z,89.000000
2023-10-03T01:05:16.858Z,88.000000
2023-10-03T01:10:16.896Z,88.000000
2023-10-03T01:15:18.833Z,88.000000
2023-10-03T01:20:16.953Z,88.000000
2023-10-03T01:25:16.916Z,88.000000
2023-10-03T01:30:16.835Z,88.000000
2023-10-03T01:35:17.107Z,88.000000
2023-10-03T01:40:16.889Z,88.000000
2023-10-03T01:45:16.916Z,88.000000
2023-10-03T01:50:16.990Z,89.000000
2023-10-03T01:55:17.108Z,88.000000
2023-10-03T02:00:17.139Z,88.000000
2023-10-03T02:05:17.115Z,88.000000
2023-10-03T02:10:17.116Z,89.000000
2023-10-03T02:15:17.026Z,88.000000
2023-10-03T02:20:17.121Z,88.000000
2023-10-03T02:25:16.957Z,88.000000
2023-10-03T02:30:17.046Z,88.000000
2023-10-03T02:35:17.111Z,87.000000
2023-10-03T02:40:17.033Z,87.000000
2023-10-03T02:45:17.150Z,88.000000
2023-10-03T02:50:17.145Z,87.000000
2023-10-03T02:55:17.422Z,87.000000
2023-10-03T03:00:17.088Z,87.000000
2023-10-03T03:05:17.262Z,87.000000
2023-10-03T03:10:17.496Z,87.000000
2023-10-03T03:15:17.248Z,86.000000
2023-10-03T03:20:17.215Z,87.000000
2023-10-03T03:25:17.145Z,87.000000
2023-10-03T03:30:17.162Z,87.000000
2023-10-03T03:35:17.270Z,87.000000
2023-10-03T03:40:17.274Z,87.000000
2023-10-03T03:45:17.329Z,87.000000
2023-10-03T03:50:17.196Z,87.000000
2023-10-03T03:55:17.250Z,87.000000
2023-10-03T04:00:16.192Z,88.000000
2023-10-03T04:05:16.249Z,87.000000
2023-10-03T04:10:16.252Z,87.000000
2023-10-03T04:15:16.398Z,87.000000
2023-10-03T04:20:16.396Z,87.000000
2023-10-03T04:25:16.253Z,87.000000
2023-10-03T04:30:16.233Z,86.000000
2023-10-03T04:35:16.277Z,86.000000
2023-10-03T04:40:16.300Z,87.000000
2023-10-03T04:45:16.368Z,86.000000
2023-10-03T04:50:16.371Z,87.000000
2023-10-03T04:55:16.312Z,87.000000
2023-10-03T05:00:16.649Z,87.000000
2023-10-03T05:05:16.396Z,87.000000
2023-10-03T05:10:16.346Z,87.000000
2023-10-03T05:15:16.429Z,88.000000
2023-10-03T05:20:16.450Z,87.000000
2023-10-03T05:25:16.486Z,87.000000
2023-10-03T05:30:16.570Z,87.000000
2023-10-03T05:35:16.604Z,88.000000
2023-10-03T05:40:16.592Z,88.000000
2023-10-03T05:45:16.424Z,89.000000
2023-10-03T05:50:16.802Z,89.000000
2023-10-03T05:55:16.475Z,89.000000
2023-10-03T06:00:16.610Z,88.000000
2023-10-03T06:05:16.687Z,88.000000
2023-10-03T06:10:16.628Z,89.000000
2023-10-03T06:15:16.521Z,88.000000
2023-10-03T06:20:16.744Z,89.000000
2023-10-03T06:25:16.617Z,89.000000
2023-10-03T06:30:16.546Z,89.000000
2023-10-03T06:35:16.495Z,89.000000
2023-10-03T06:40:16.623Z,89.000000
2023-10-03T06:45:16.640Z,89.000000
2023-10-03T06:50:16.739Z,88.000000
2023-10-03T06:55:16.619Z,89.000000
2023-10-03T07:00:16.754Z,88.000000
2023-10-03T07:05:16.491Z,88.000000
2023-10-03T07:10:16.655Z,89.000000
2023-10-03T07:15:16.665Z,88.000000
2023-10-03T07:20:16.802Z,88.000000
2023-10-03T07:25:16.719Z,88.000000
2023-10-03T07:30:17.026Z,88.000000
2023-10-03T07:35:16.709Z,87.000000
2023-10-03T07:40:16.723Z,87.000000
2023-10-03T07:45:16.786Z,86.000000
2023-10-03T07:50:16.728Z,86.000000
2023-10-03T07:55:16.777Z,86.000000
2023-10-03T08:00:16.882Z,86.000000
2023-10-03T08:05:16.855Z,86.000000
2023-10-03T08:10:16.792Z,86.000000
2023-10-03T08:15:16.990Z,85.000000
2023-10-03T08:20:16.821Z,84.000000
2023-10-03T08:25:16.938Z,84.000000
2023-10-03T08:30:17.117Z,83.000000
2023-10-03T08:35:16.825Z,83.000000
2023-10-03T08:40:16.991Z,82.000000
2023-10-03T08:45:16.949Z,82.000000
2023-10-03T08:50:16.864Z,82.000000
2023-10-03T08:55:16.941Z,82.000000
2023-10-03T09:00:17.654Z,82.000000
2023-10-03T09:05:16.906Z,82.000000
2023-10-03T09:10:16.968Z,82.000000
2023-10-03T09:15:16.853Z,83.000000
2023-10-03T09:20:16.945Z,83.000000
2023-10-03T09:25:17.031Z,83.000000
2023-10-03T09:30:16.974Z,82.000000
2023-10-03T09:35:17.017Z,81.000000
2023-10-03T09:40:17.427Z,81.000000
2023-10-03T09:45:17.834Z,82.000000
2023-10-03T09:50:17.131Z,82.000000
2023-10-03T09:55:17.080Z,82.000000
2023-10-03T10:00:17.024Z,82.000000
2023-10-03T10:05:17.146Z,82.000000
2023-10-03T10:10:16.994Z,82.000000
2023-10-03T10:15:18.478Z,82.000000
2023-10-03T10:20:18.914Z,81.000000
2023-10-03T10:25:17.059Z,82.000000
2023-10-03T10:30:17.058Z,83.000000
2023-10-03T10:35:17.126Z,82.000000
2023-10-03T10:40:17.271Z,83.000000
2023-10-03T10:45:17.233Z,83.000000
2023-10-03T10:50:22.335Z,83.000000
2023-10-03T10:55:17.126Z,83.000000
2023-10-03T11:00:17.283Z,84.000000
2023-10-03T11:05:17.096Z,84.000000
2023-10-03T11:10:34.104Z,84.000000
2023-10-03T11:15:17.473Z,84.000000
2023-10-03T11:20:17.164Z,84.000000
2023-10-03T11:25:17.202Z,83.000000
2023-10-03T11:30:17.411Z,83.000000
2023-10-03T11:35:17.251Z,82.000000
2023-10-03T11:40:17.241Z,83.000000
2023-10-03T11:45:17.248Z,83.000000
2023-10-03T11:50:17.382Z,83.000000
2023-10-03T11:55:17.274Z,83.000000
2023-10-03T12:00:17.280Z,82.000000
2023-10-03T12:05:17.335Z,82.000000
2023-10-03T12:10:17.303Z,81.000000
2023-10-03T12:15:17.308Z,81.000000
2023-10-03T12:20:17.342Z,80.000000
2023-10-03T12:25:17.362Z,80.000000
2023-10-03T12:30:17.331Z,80.000000
2023-10-03T12:35:17.418Z,80.000000
2023-10-03T12:40:17.590Z,79.000000
2023-10-03T12:45:17.440Z,78.000000
2023-10-03T12:50:17.385Z,77.000000
2023-10-03T12:55:17.427Z,76.000000
2023-10-03T13:00:15.462Z,76.000000
2023-10-03T13:05:15.310Z,75.000000
2023-10-03T13:10:15.666Z,74.000000
2023-10-03T13:15:15.568Z,73.000000
2023-10-03T13:20:15.527Z,73.000000
2023-10-03T13:25:15.442Z,73.000000
2023-10-03T13:30:15.480Z,73.000000
2023-10-03T13:35:15.448Z,73.000000
2023-10-03T13:40:15.934Z,74.000000
2023-10-03T13:45:15.511Z,74.000000
2023-10-03T13:50:15.535Z,73.000000
2023-10-03T13:55:15.548Z,72.000000
2023-10-03T14:00:15.843Z,72.000000
2023-10-03T14:05:15.650Z,72.000000
2023-10-03T14:10:15.568Z,71.000000
2023-10-03T14:15:15.774Z,70.000000
2023-10-03T14:20:15.560Z,71.000000
2023-10-03T14:25:15.627Z,70.000000
2023-10-03T14:30:15.860Z,69.000000
2023-10-03T14:35:15.693Z,69.000000
2023-10-03T14:40:15.714Z,69.000000
2023-10-03T14:45:15.808Z,68.000000
2023-10-03T14:50:15.648Z,67.000000
2023-10-03T14:55:15.721Z,67.000000
2023-10-03T15:00:15.784Z,67.000000
2023-10-03T15:05:15.638Z,67.000000
2023-10-03T15:10:15.813Z,66.000000
2023-10-03T15:15:15.806Z,65.000000
2023-10-03T15:20:15.762Z,65.000000
2023-10-03T15:25:15.983Z,65.000000
2023-10-03T15:30:15.804Z,64.000000
2023-10-03T15:35:15.859Z,64.000000
2023-10-03T15:40:15.763Z,63.000000
2023-10-03T15:45:17.452Z,64.000000
2023-10-03T15:50:15.816Z,64.000000
2023-10-03T15:55:15.841Z,64.000000
2023-10-03T16:00:16.261Z,63.000000
2023-10-03T16:05:15.902Z,64.000000
2023-10-03T16:10:15.864Z,64.000000
2023-10-03T16:15:16.848Z,64.000000
2023-10-03T16:20:16.005Z,63.000000
2023-10-03T16:25:16.024Z,63.000000
2023-10-03T16:30:15.946Z,63.000000
2023-10-03T16:35:16.653Z,63.000000
2023-10-03T16:40:16.026Z,63.000000
2023-10-03T16:45:18.021Z,62.000000
2023-10-03T16:50:16.026Z,62.000000
2023-10-03T16:55:16.069Z,61.000000
2023-10-03T17:00:16.114Z,60.000000
2023-10-03T17:05:15.927Z,61.000000
2023-10-03T17:10:16.019Z,60.000000
2023-10-03T17:15:16.057Z,61.000000
2023-10-03T17:20:16.069Z,61.000000
2023-10-03T17:25:16.008Z,61.000000
2023-10-03T17:30:16.084Z,61.000000
2023-10-03T17:35:27.040Z,61.000000
2023-10-03T17:40:16.287Z,61.000000
2023-10-03T17:45:16.084Z,61.000000
2023-10-03T17:50:16.055Z,61.000000
2023-10-03T17:55:16.204Z,60.000000
2023-10-03T18:00:16.205Z,61.000000
2023-10-03T18:05:16.084Z,60.000000
2023-10-03T18:10:16.214Z,61.000000
2023-10-03T18:15:17.011Z,61.000000
2023-10-03T18:20:16.338Z,61.000000
2023-10-03T18:25:16.125Z,60.000000
2023-10-03T18:30:16.196Z,61.000000
2023-10-03T18:35:16.965Z,60.000000
2023-10-03T18:40:16.159Z,60.000000
2023-10-03T18:45:16.221Z,60.000000
2023-10-03T18:50:16.403Z,61.000000
2023-10-03T18:55:16.377Z,60.000000
2023-10-03T19:00:16.282Z,61.000000
2023-10-03T19:05:16.086Z,62.000000
2023-10-03T19:10:16.248Z,62.000000
2023-10-03T19:15:16.222Z,62.000000
2023-10-03T19:20:16.351Z,62.000000
2023-10-03T19:25:16.251Z,62.000000
2023-10-03T19:30:20.090Z,62.000000
2023-10-03T19:35:16.239Z,62.000000
2023-10-03T19:40:16.417Z,63.000000
2023-10-03T19:45:16.507Z,63.000000
2023-10-03T19:50:16.799Z,63.000000
2023-10-03T19:55:16.345Z,64.000000
2023-10-03T20:00:16.458Z,64.000000
2023-10-03T20:05:16.348Z,65.000000
2023-10-03T20:10:17.130Z,65.000000
2023-10-03T20:15:16.504Z,65.000000
2023-10-03T20:20:16.388Z,65.000000
2023-10-03T20:25:16.366Z,65.000000
2023-10-03T20:30:16.438Z,65.000000
2023-10-03T20:35:16.476Z,66.000000
2023-10-03T20:40:16.546Z,65.000000
2023-10-03T20:45:16.644Z,65.000000
2023-10-03T20:50:16.423Z,66.000000
2023-10-03T20:55:16.532Z,66.000000
2023-10-03T21:00:16.555Z,67.000000
2023-10-03T21:05:16.418Z,67.000000
2023-10-03T21:10:16.451Z,67.000000
2023-10-03T21:15:16.594Z,67.000000
2023-10-03T21:20:16.490Z,68.000000
2023-10-03T21:25:16.560Z,68.000000
2023-10-03T21:30:16.924Z,68.000000
2023-10-03T21:35:16.777Z,69.000000
2023-10-03T21:40:16.687Z,70.000000
2023-10-03T21:45:16.662Z,71.000000
2023-10-03T21:50:16.700Z,72.000000
2023-10-03T21:55:16.707Z,73.000000
2023-10-03T22:00:16.628Z,73.000000
2023-10-03T22:05:16.791Z,74.000000
2023-10-03T22:10:16.811Z,73.000000
2023-10-03T22:15:16.681Z,74.000000
2023-10-03T22:20:16.710Z,74.000000
2023-10-03T22:25:16.772Z,75.000000
2023-10-03T22:30:16.829Z,76.000000
2023-10-03T22:35:16.679Z,77.000000
2023-10-03T22:40:16.719Z,78.000000
2023-10-03T22:45:16.768Z,79.000000
2023-10-03T22:50:16.712Z,80.000000
2023-10-03T22:55:16.733Z,81.000000
2023-10-03T23:00:16.815Z,81.000000
2023-10-03T23:05:16.763Z,82.000000
2023-10-03T23:10:16.750Z,84.000000
2023-10-03T23:15:16.888Z,85.000000
2023-10-03T23:20:16.811Z,86.000000
2023-10-03T23:25:16.894Z,87.000000
2023-10-03T23:30:16.820Z,86.000000
2023-10-03T23:35:19.476Z,86.000000
2023-10-03T23:40:16.850Z,87.000000
2023-10-03T23:45:16.874Z,87.000000
2023-10-03T23:50:16.929Z,87.000000
2023-10-03T23:55:16.941Z,88.000000
